Time;durP1;ratioP1;P1;durP2;ratioP2;P2;SDS_P1;SDS_P2;PMS_P1;PMS_P2;Temp;Humidity;BMP_temperature;BMP_pressure;BME280_temperature;BME280_humidity;BME280_pressure;Samples;Min_cycle;Max_cycle;Signal;HPM_P1;HPM_P2
2022/02/26 00:01:26;;;;;;;7.43;2.75;;;;;;;0.43;100.00;97050.47;4972047;28;24798;-72
2022/02/26 00:03:53;;;;;;;6.35;2.72;;;;;;;0.42;100.00;97044.53;4971828;28;24445;-72
2022/02/26 00:06:19;;;;;;;7.18;2.60;;;;;;;0.44;100.00;97041.94;4971884;28;24425;-72
2022/02/26 00:08:46;;;;;;;8.18;2.83;;;;;;;0.45;100.00;97049.59;4971783;28;24425;-72
2022/02/26 00:11:13;;;;;;;8.95;2.40;;;;;;;0.39;100.00;97047.06;4971957;28;24480;-72
2022/02/26 00:13:39;;;;;;;9.63;2.75;;;;;;;0.30;100.00;97054.75;4971761;28;24835;-72
2022/02/26 00:16:06;;;;;;;10.43;2.92;;;;;;;0.17;100.00;97051.34;4971805;28;24418;-71
2022/02/26 00:18:33;;;;;;;5.38;2.40;;;;;;;0.14;100.00;97060.69;4971411;28;24421;-72
2022/02/26 00:21:00;;;;;;;7.57;3.03;;;;;;;0.10;100.00;97059.00;4971731;28;24421;-72
2022/02/26 00:23:26;;;;;;;6.20;2.97;;;;;;;0.16;100.00;97057.31;4971803;28;24452;-72
2022/02/26 00:25:53;;;;;;;7.95;2.78;;;;;;;0.12;100.00;97073.44;4971733;28;24426;-72
2022/02/26 00:28:20;;;;;;;13.57;2.80;;;;;;;0.11;100.00;97065.78;4971712;28;24425;-72
2022/02/26 00:30:47;;;;;;;8.38;3.10;;;;;;;0.08;100.00;97076.84;4975585;28;24524;-72
2022/02/26 00:33:13;;;;;;;5.97;2.63;;;;;;;0.24;100.00;97086.16;4975468;28;24448;-72
2022/02/26 00:35:42;;;;;;;5.73;2.47;;;;;;;0.26;100.00;97078.53;4975404;28;24946;-72
2022/02/26 00:38:08;;;;;;;6.00;2.67;;;;;;;0.21;100.00;97080.22;4975372;28;24414;-72
2022/02/26 00:40:35;;;;;;;6.43;2.40;;;;;;;0.21;100.00;97082.78;4975552;28;24417;-72
2022/02/26 00:43:02;;;;;;;9.00;2.95;;;;;;;0.08;100.00;97086.19;4975290;28;24473;-72
2022/02/26 00:45:28;;;;;;;10.35;3.05;;;;;;;0.04;100.00;97090.44;4975252;28;24963;-72
2022/02/26 00:47:55;;;;;;;9.30;3.35;;;;;;;-0.03;100.00;97102.31;4974567;28;24421;-72
2022/02/26 00:50:20;;;;;;;6.20;2.55;;;;;;;-0.03;100.00;97098.94;4975411;28;25196;-72
2022/02/26 00:52:49;;;;;;;8.57;2.83;;;;;;;0.03;100.00;97098.91;4975359;28;24430;-72
2022/02/26 00:55:16;;;;;;;5.82;2.63;;;;;;;0.00;100.00;97096.41;4975192;28;24413;-72
2022/02/26 00:57:42;;;;;;;10.93;2.47;;;;;;;-0.01;100.00;97105.69;4974882;28;24492;-72
2022/02/26 01:00:11;;;;;;;6.15;2.40;;;;;;;0.04;100.00;97108.28;4975250;28;24472;-72
2022/02/26 01:02:37;;;;;;;5.82;2.55;;;;;;;0.11;100.00;97107.44;4974822;28;25027;-72
2022/02/26 01:05:04;;;;;;;13.93;2.65;;;;;;;0.26;100.00;97103.16;4975126;28;24467;-72
2022/02/26 01:07:31;;;;;;;6.63;2.58;;;;;;;0.20;100.00;97109.97;4974766;28;24433;-72
2022/02/26 01:09:59;;;;;;;5.03;2.22;;;;;;;0.60;100.00;97106.50;4975044;28;24437;-72
2022/02/26 01:12:26;;;;;;;6.70;2.35;;;;;;;0.80;100.00;97116.66;4974801;28;24974;-72
2022/02/26 01:14:52;;;;;;;6.75;2.50;;;;;;;0.68;100.00;97123.47;4974827;28;24520;-72
2022/02/26 01:17:19;;;;;;;8.82;2.70;;;;;;;0.48;100.00;97126.06;4974320;28;24424;-72
2022/02/26 01:19:48;;;;;;;7.18;2.55;;;;;;;0.33;100.00;97128.63;4974819;28;24461;-72
2022/02/26 01:22:14;;;;;;;6.55;2.83;;;;;;;0.29;100.00;97132.03;4974726;28;24648;-72
2022/02/26 01:24:41;;;;;;;5.28;2.50;;;;;;;0.34;100.00;97135.44;4974690;28;24468;-72
2022/02/26 01:27:09;;;;;;;6.90;2.70;;;;;;;0.44;100.00;97136.25;4974308;28;24526;-72
2022/02/26 01:29:36;;;;;;;4.80;2.33;;;;;;;0.52;100.00;97129.47;4974451;28;24489;-72
2022/02/26 01:32:03;;;;;;;5.38;2.33;;;;;;;0.62;100.00;97132.84;4974777;28;24433;-72
2022/02/26 01:34:30;;;;;;;5.73;2.40;;;;;;;0.65;100.00;97130.28;4974414;28;25013;-72
2022/02/26 01:36:56;;;;;;;8.10;2.30;;;;;;;0.65;100.00;97128.56;4974476;28;24425;-72
2022/02/26 01:39:24;;;;;;;5.57;2.03;;;;;;;0.77;100.00;97134.50;4973943;28;24441;-72
2022/02/26 01:41:52;;;;;;;5.28;2.50;;;;;;;0.86;100.00;97130.25;4974277;28;24509;-72
2022/02/26 01:44:20;;;;;;;7.22;2.38;;;;;;;0.79;100.00;97123.44;4974113;28;24986;-72
2022/02/26 01:46:47;;;;;;;5.30;2.38;;;;;;;0.77;100.00;97130.25;4974322;28;24787;-72
2022/02/26 01:49:13;;;;;;;5.90;2.60;;;;;;;0.72;100.00;97135.38;4973906;28;25130;-72
2022/02/26 01:51:40;;;;;;;4.70;2.30;;;;;;;0.57;100.00;97130.31;4974223;28;24484;-72
2022/02/26 01:54:06;;;;;;;5.57;2.67;;;;;;;0.66;100.00;97135.38;4974268;28;24429;-72
2022/02/26 01:56:34;;;;;;;7.07;3.33;;;;;;;0.76;100.00;97132.81;4973911;28;25021;-72
2022/02/26 01:59:00;;;;;;;10.35;4.80;;;;;;;0.82;100.00;97127.72;4973662;28;24477;-72
2022/02/26 02:01:28;;;;;;;12.98;7.05;;;;;;;0.93;100.00;97136.19;4974205;28;24444;-72
2022/02/26 02:03:55;;;;;;;9.52;5.15;;;;;;;0.87;100.00;97126.81;4974007;28;24449;-72
2022/02/26 02:06:22;;;;;;;12.13;4.90;;;;;;;0.84;100.00;97120.88;4973906;28;24421;-72
2022/02/26 02:08:49;;;;;;;8.32;4.68;;;;;;;0.78;100.00;97131.97;4973429;28;24499;-72
2022/02/26 02:11:16;;;;;;;7.20;3.80;;;;;;;0.78;100.00;97115.78;4973968;28;24422;-72
2022/02/26 02:13:42;;;;;;;12.75;6.28;;;;;;;0.65;100.00;97126.03;4973994;28;24440;-72
2022/02/26 02:16:09;;;;;;;9.65;5.55;;;;;;;0.59;100.00;97123.47;4973945;28;24496;-72
2022/02/26 02:18:37;;;;;;;7.75;3.97;;;;;;;0.57;100.00;97125.19;4973483;28;24425;-72
2022/02/26 02:21:04;;;;;;;7.82;3.97;;;;;;;0.55;100.00;97129.44;4973804;28;24428;-72
2022/02/26 02:23:31;;;;;;;10.93;4.13;;;;;;;0.54;100.00;97130.31;4973530;28;24442;-72
2022/02/26 02:25:58;;;;;;;5.97;3.28;;;;;;;0.57;100.00;97124.34;4973334;28;24954;-72
2022/02/26 02:28:24;;;;;;;7.13;4.22;;;;;;;0.61;100.00;97124.34;4973308;28;24487;-72
2022/02/26 02:30:51;;;;;;;7.45;3.80;;;;;;;0.53;100.00;97127.75;4973292;28;25044;-72
2022/02/26 02:33:18;;;;;;;9.00;4.30;;;;;;;0.42;100.00;97122.69;4973616;28;24420;-72
2022/02/26 02:35:45;;;;;;;6.85;2.83;;;;;;;0.36;100.00;97127.78;4973291;28;24472;-72
2022/02/26 02:38:14;;;;;;;8.68;3.13;;;;;;;0.48;100.00;97128.63;4973064;28;24425;-72
2022/02/26 02:40:43;;;;;;;8.40;3.35;;;;;;;0.57;100.00;97130.31;4973242;28;24420;-72
2022/02/26 02:43:11;;;;;;;11.18;5.85;;;;;;;0.79;100.00;97132.81;4973040;28;24991;-72
2022/02/26 02:45:39;;;;;;;11.37;5.57;;;;;;;0.71;100.00;97135.38;4973165;28;24535;-72
2022/02/26 02:48:06;;;;;;;10.68;5.18;;;;;;;0.73;100.00;97133.66;4972907;28;24472;-72
2022/02/26 02:50:33;;;;;;;10.45;4.55;;;;;;;0.76;100.00;97135.38;4973271;28;24413;-72
2022/02/26 02:53:00;;;;;;;10.65;4.35;;;;;;;0.70;100.00;97139.63;4972531;28;24823;-72
2022/02/26 02:55:26;;;;;;;7.22;3.10;;;;;;;0.55;100.00;97143.88;4973073;28;24433;-72
2022/02/26 02:57:55;;;;;;;9.00;3.08;;;;;;;0.48;100.00;97136.28;4972711;28;24485;-72
2022/02/26 03:00:22;;;;;;;7.20;3.03;;;;;;;0.41;100.00;97134.59;4972934;28;24532;-72
2022/02/26 03:02:49;;;;;;;6.80;2.95;;;;;;;0.51;100.00;97142.19;4972846;28;24429;-72
2022/02/26 03:05:16;;;;;;;7.90;2.75;;;;;;;0.50;100.00;97140.50;4972681;28;25013;-72
2022/02/26 03:07:43;;;;;;;7.43;3.10;;;;;;;0.47;100.00;97146.44;4972560;28;24433;-72
2022/02/26 03:10:10;;;;;;;8.63;2.90;;;;;;;0.52;100.00;97146.44;4972938;28;24484;-73
2022/02/26 03:12:36;;;;;;;7.95;3.08;;;;;;;0.49;100.00;97147.31;4972578;28;25017;-73
2022/02/26 03:15:05;;;;;;;7.32;2.78;;;;;;;0.46;100.00;97144.75;4972617;28;24421;-73
2022/02/26 03:17:31;;;;;;;18.13;3.15;;;;;;;0.46;100.00;97147.31;4972389;28;24484;-73
2022/02/26 03:19:58;;;;;;;6.57;3.00;;;;;;;0.47;100.00;97146.44;4972479;28;24448;-73
2022/02/26 03:22:25;;;;;;;7.37;3.07;;;;;;;0.44;100.00;97164.28;4972567;28;24951;-73
2022/02/26 03:24:51;;;;;;;6.93;2.92;;;;;;;0.48;100.00;97156.66;4972535;28;24491;-73
2022/02/26 03:27:18;;;;;;;5.63;2.50;;;;;;;0.55;100.00;97167.69;4972217;28;24488;-73
2022/02/26 03:29:45;;;;;;;6.93;3.00;;;;;;;0.56;100.00;97171.94;4972405;28;24424;-73
2022/02/26 03:32:12;;;;;;;4.93;2.90;;;;;;;0.58;100.00;97167.69;4972720;28;24422;-73
2022/02/26 03:34:39;;;;;;;5.22;3.00;;;;;;;0.70;100.00;97177.00;4974330;28;24428;-72
2022/02/26 03:37:07;;;;;;;6.28;2.58;;;;;;;0.66;100.00;97172.78;4975484;28;24752;-73
2022/02/26 03:39:34;;;;;;;5.07;2.17;;;;;;;0.57;100.00;97165.16;4975327;28;24434;-73
2022/02/26 03:42:02;;;;;;;5.40;2.33;;;;;;;0.62;100.00;97173.63;4975681;28;24413;-73
2022/02/26 03:44:28;;;;;;;6.32;2.50;;;;;;;0.68;100.00;97169.38;4974741;28;24457;-73
2022/02/26 03:46:56;;;;;;;6.43;2.95;;;;;;;0.86;100.00;97180.41;4974993;28;25033;-73
2022/02/26 03:49:24;;;;;;;6.20;2.60;;;;;;;0.87;100.00;97179.53;4975302;28;24480;-73
2022/02/26 03:51:50;;;;;;;7.90;2.72;;;;;;;0.57;100.00;97183.00;4975817;28;24433;-73
2022/02/26 03:54:17;;;;;;;9.32;3.15;;;;;;;0.32;100.00;97184.69;4974199;28;24442;-73
2022/02/26 03:56:44;;;;;;;8.60;2.50;;;;;;;0.16;100.00;97194.03;4972192;28;24428;-73
2022/02/26 03:59:11;;;;;;;4.57;2.20;;;;;;;0.11;100.00;97194.03;4971802;28;25010;-73
2022/02/26 04:01:38;;;;;;;6.95;2.72;;;;;;;-0.02;100.00;97188.06;4971971;28;24424;-73
2022/02/26 04:04:05;;;;;;;4.05;2.20;;;;;;;0.12;100.00;97189.78;4972164;28;24790;-73
2022/02/26 04:06:33;;;;;;;5.13;2.40;;;;;;;0.12;100.00;97193.19;4972073;28;24428;-72
2022/02/26 04:08:59;;;;;;;12.70;3.00;;;;;;;-0.03;100.00;97190.63;4971783;28;24484;-72
2022/02/26 04:11:26;;;;;;;7.77;2.87;;;;;;;-0.14;100.00;97197.41;4971998;28;24420;-72
2022/02/26 04:13:53;;;;;;;8.63;2.92;;;;;;;-0.20;100.00;97203.31;4971739;28;24962;-72
2022/02/26 04:16:19;;;;;;;6.55;3.03;;;;;;;-0.22;100.00;97201.59;4971630;28;24417;-72
2022/02/26 04:18:45;;;;;;;8.70;2.90;;;;;;;-0.24;100.00;97199.06;4971646;28;24480;-72
2022/02/26 04:21:13;;;;;;;5.50;2.80;;;;;;;-0.17;100.00;97207.56;4981126;28;24448;-72
2022/02/26 04:23:41;;;;;;;8.20;2.88;;;;;;;-0.14;100.00;97205.88;4990941;28;24448;-72
2022/02/26 04:26:07;;;;;;;6.57;2.30;;;;;;;-0.27;100.00;97212.63;4990971;28;24831;-72
2022/02/26 04:28:34;;;;;;;10.10;2.65;;;;;;;-0.27;100.00;97211.78;4990735;28;24472;-72
2022/02/26 04:31:01;;;;;;;6.88;2.83;;;;;;;-0.26;100.00;97216.88;4991408;28;24513;-72
2022/02/26 04:33:28;;;;;;;7.88;2.95;;;;;;;-0.21;100.00;97218.59;4991239;28;24413;-72
2022/02/26 04:35:55;;;;;;;4.53;2.63;;;;;;;-0.24;100.00;97211.78;4991067;28;24479;-72
2022/02/26 04:38:22;;;;;;;7.85;2.85;;;;;;;-0.20;100.00;97217.75;4990602;28;25037;-72
2022/02/26 04:40:49;;;;;;;9.07;3.38;;;;;;;-0.32;100.00;97210.91;4991080;28;24420;-72
2022/02/26 04:43:16;;;;;;;7.80;3.08;;;;;;;-0.36;100.00;97212.59;4990578;28;24444;-72
2022/02/26 04:45:43;;;;;;;11.50;3.92;;;;;;;-0.31;100.00;97215.16;4990958;28;24425;-72
2022/02/26 04:48:09;;;;;;;7.00;3.28;;;;;;;-0.27;100.00;97224.50;4990417;28;24450;-73
2022/02/26 04:50:35;;;;;;;7.68;3.13;;;;;;;-0.22;100.00;97219.41;4990937;28;24429;-73
2022/02/26 04:53:02;;;;;;;9.15;3.63;;;;;;;-0.25;100.00;97225.38;4990928;28;24809;-73
2022/02/26 04:55:29;;;;;;;10.33;3.50;;;;;;;-0.17;100.00;97222.84;4990690;28;24474;-73
2022/02/26 04:57:57;;;;;;;9.88;3.45;;;;;;;0.00;100.00;97221.19;4990344;28;25013;-73
2022/02/26 05:00:23;;;;;;;6.75;2.40;;;;;;;0.44;100.00;97222.91;4990722;28;24439;-73
2022/02/26 05:02:49;;;;;;;5.27;2.33;;;;;;;0.62;100.00;97230.56;4990933;28;24424;-73
2022/02/26 05:05:16;;;;;;;8.43;2.70;;;;;;;0.53;100.00;97222.94;4990683;28;24444;-73
2022/02/26 05:07:44;;;;;;;9.32;2.60;;;;;;;0.26;100.00;97231.44;4990434;28;24420;-73
2022/02/26 05:10:10;;;;;;;8.60;2.65;;;;;;;0.29;100.00;97228.00;4990673;28;24421;-73
2022/02/26 05:12:37;;;;;;;5.82;2.70;;;;;;;0.21;100.00;97223.75;4990715;28;24760;-72
2022/02/26 05:15:06;;;;;;;7.03;2.67;;;;;;;0.14;100.00;97221.19;4991869;28;24417;-72
2022/02/26 05:17:33;;;;;;;8.27;2.53;;;;;;;0.10;100.00;97222.88;4994019;28;24425;-72
2022/02/26 05:19:59;;;;;;;5.70;2.30;;;;;;;0.11;100.00;97227.16;4994206;28;24862;-72
2022/02/26 05:22:26;;;;;;;4.57;2.50;;;;;;;0.07;100.00;97224.56;5065586;23;24990;-76
2022/02/26 05:24:52;;;;;;;6.45;2.60;;;;;;;-0.08;100.00;97228.78;5073938;28;24442;-75
2022/02/26 05:27:18;;;;;;;7.50;3.25;;;;;;;-0.19;100.00;97233.00;5073711;28;24430;-75
2022/02/26 05:29:45;;;;;;;7.85;3.10;;;;;;;-0.31;100.00;97238.91;5073850;28;24973;-76
2022/02/26 05:32:13;;;;;;;7.35;2.85;;;;;;;-0.19;100.00;97239.81;5073603;28;24430;-76
2022/02/26 05:34:40;;;;;;;9.15;2.90;;;;;;;-0.08;100.00;97235.59;5073690;28;24415;-75
2022/02/26 05:37:06;;;;;;;6.55;2.72;;;;;;;0.02;100.00;97232.22;5073639;28;24434;-75
2022/02/26 05:39:32;;;;;;;8.18;3.38;;;;;;;-0.03;100.00;97236.47;5073688;28;24418;-76
2022/02/26 05:41:59;;;;;;;11.77;4.13;;;;;;;-0.13;100.00;97244.91;5073538;28;24772;-76
2022/02/26 05:44:25;;;;;;;16.02;4.65;;;;;;;-0.09;100.00;97251.72;5072862;28;24990;-76
2022/02/26 05:46:52;;;;;;;10.98;4.15;;;;;;;-0.03;100.00;97252.59;5073248;28;24419;-75
2022/02/26 05:49:20;;;;;;;8.60;3.80;;;;;;;0.38;100.00;97251.81;5073109;28;24523;-78
2022/02/26 05:51:47;;;;;;;7.55;3.45;;;;;;;0.24;100.00;97251.78;5074002;28;24449;-75
2022/02/26 05:54:13;;;;;;;7.25;3.53;;;;;;;0.35;100.00;97261.16;5074185;28;24423;-76
2022/02/26 05:56:40;;;;;;;7.95;3.58;;;;;;;0.34;100.00;97257.75;5073416;28;24795;-76
2022/02/26 05:59:06;;;;;;;12.70;4.22;;;;;;;0.22;100.00;97266.25;5073291;28;24448;-75
2022/02/26 06:01:33;;;;;;;12.18;4.75;;;;;;;0.20;100.00;97252.63;5072934;28;24430;-76
2022/02/26 06:03:59;;;;;;;14.48;3.92;;;;;;;0.27;100.00;97261.16;5073062;28;24454;-76
2022/02/26 06:06:27;;;;;;;10.73;4.53;;;;;;;0.28;100.00;97265.38;5074387;28;24423;-75
2022/02/26 06:08:54;;;;;;;8.63;4.22;;;;;;;0.48;100.00;97265.41;5072791;28;24422;-76
2022/02/26 06:11:20;;;;;;;7.88;3.67;;;;;;;0.82;100.00;97275.63;5073009;28;24422;-76
2022/02/26 06:13:47;;;;;;;10.23;4.22;;;;;;;0.53;100.00;97276.47;5072976;28;24827;-75
2022/02/26 06:16:15;;;;;;;8.68;3.78;;;;;;;0.43;100.00;97282.41;5073232;28;24525;-75
2022/02/26 06:18:42;;;;;;;7.68;4.13;;;;;;;0.29;100.00;97277.28;5072968;28;24434;-75
2022/02/26 06:21:08;;;;;;;9.10;4.38;;;;;;;0.10;100.00;97288.28;5073132;28;24838;-75
2022/02/26 06:23:36;;;;;;;13.10;4.70;;;;;;;-0.13;100.00;97286.50;5073055;28;24450;-75
2022/02/26 06:26:03;;;;;;;8.75;4.88;;;;;;;-0.27;100.00;97300.88;5072747;28;24530;-75
2022/02/26 06:28:29;;;;;;;9.98;4.90;;;;;;;-0.22;100.00;97298.34;5073222;28;24426;-75
2022/02/26 06:30:56;;;;;;;13.13;4.40;;;;;;;-0.09;100.00;97306.03;5072320;28;24406;-74
2022/02/26 06:33:22;;;;;;;7.75;4.22;;;;;;;0.02;100.00;97310.34;5072136;28;24437;-74
2022/02/26 06:35:49;;;;;;;10.43;4.95;;;;;;;0.06;100.00;97310.34;5072209;28;24430;-74
2022/02/26 06:38:15;;;;;;;9.93;4.73;;;;;;;-0.06;100.00;97317.94;5072036;28;24449;-74
2022/02/26 06:40:43;;;;;;;13.32;4.95;;;;;;;-0.10;100.00;97314.53;5072896;28;24480;-75
2022/02/26 06:43:10;;;;;;;9.57;4.50;;;;;;;-0.03;100.00;97313.72;5072741;28;24453;-75
2022/02/26 06:45:36;;;;;;;11.57;4.80;;;;;;;-0.01;100.00;97317.09;5072580;28;24500;-75
2022/02/26 06:48:03;;;;;;;12.87;5.00;;;;;;;0.03;100.00;97317.97;5072362;28;24541;-75
2022/02/26 06:50:30;;;;;;;13.63;4.65;;;;;;;0.09;100.00;97310.34;5072611;28;24427;-75
2022/02/26 06:52:57;;;;;;;7.47;4.50;;;;;;;0.22;100.00;97322.28;5072924;28;24510;-75
2022/02/26 06:55:24;;;;;;;8.63;4.35;;;;;;;0.30;100.00;97314.66;5072232;28;24966;-75
2022/02/26 06:57:52;;;;;;;13.38;5.03;;;;;;;0.15;100.00;97314.59;5073291;28;24792;-74
2022/02/26 07:00:19;;;;;;;11.20;4.45;;;;;;;0.33;100.00;97316.34;5071658;28;24434;-76
2022/02/26 07:02:45;;;;;;;6.93;3.37;;;;;;;0.45;100.00;97321.50;5071654;28;24427;-76
2022/02/26 07:05:12;;;;;;;7.70;4.43;;;;;;;0.60;100.00;97321.50;5071489;28;24839;-76
2022/02/26 07:07:39;;;;;;;9.82;5.55;;;;;;;0.60;100.00;97318.13;5071396;28;24473;-76
2022/02/26 07:10:06;;;;;;;9.40;4.80;;;;;;;0.57;100.00;97313.84;5071625;28;24419;-76
2022/02/26 07:12:33;;;;;;;11.17;4.90;;;;;;;1.01;100.00;97320.69;5071283;28;24493;-76
2022/02/26 07:15:00;;;;;;;7.88;4.55;;;;;;;0.95;100.00;97326.63;5071472;28;24419;-76
2022/02/26 07:17:27;;;;;;;9.25;4.72;;;;;;;0.60;100.00;97325.78;5071267;28;24427;-76
2022/02/26 07:19:53;;;;;;;10.43;4.75;;;;;;;0.54;100.00;97341.88;5071378;28;24418;-76
2022/02/26 07:22:20;;;;;;;8.18;3.90;;;;;;;0.59;100.00;97336.78;5070871;28;25282;-76
2022/02/26 07:24:46;;;;;;;9.73;5.10;;;;;;;0.81;100.00;97338.50;5071208;28;24784;-76
2022/02/26 07:27:14;;;;;;;15.02;4.85;;;;;;;0.85;100.00;97336.81;5071051;28;24998;-76
2022/02/26 07:29:40;;;;;;;8.53;4.90;;;;;;;0.50;100.00;97340.19;5071352;28;24437;-76
2022/02/26 07:32:09;;;;;;;11.52;5.13;;;;;;;0.31;100.00;97338.44;5070814;28;24422;-76
2022/02/26 07:34:36;;;;;;;13.70;4.50;;;;;;;0.30;100.00;97345.25;5071248;28;24422;-76
2022/02/26 07:37:03;;;;;;;12.43;5.00;;;;;;;0.31;100.00;97343.56;5070898;28;24427;-76
2022/02/26 07:39:30;;;;;;;18.00;5.43;;;;;;;0.26;100.00;97333.34;5070996;28;24421;-76
2022/02/26 07:41:56;;;;;;;17.63;5.35;;;;;;;0.43;100.00;97341.03;5070749;28;24431;-75
2022/02/26 07:44:23;;;;;;;13.05;4.95;;;;;;;0.45;100.00;97347.84;5070722;28;24492;-76
2022/02/26 07:46:49;;;;;;;12.05;5.55;;;;;;;0.44;100.00;97346.09;5070786;28;24472;-76
2022/02/26 07:49:17;;;;;;;17.23;6.15;;;;;;;0.58;100.00;97348.69;5070724;28;24414;-77
2022/02/26 07:51:43;;;;;;;15.70;5.57;;;;;;;0.54;100.00;97354.63;5070901;28;24480;-75
2022/02/26 07:54:10;;;;;;;16.63;5.07;;;;;;;0.36;100.00;97357.16;5070840;28;24441;-76
2022/02/26 07:56:37;;;;;;;17.17;5.68;;;;;;;0.33;100.00;97349.47;5070799;28;24514;-75
2022/02/26 07:59:03;;;;;;;16.00;6.10;;;;;;;0.37;100.00;97353.75;5070683;28;24414;-75
2022/02/26 08:01:29;;;;;;;17.25;4.88;;;;;;;0.89;100.00;97366.56;5070481;28;24939;-76
2022/02/26 08:03:56;;;;;;;15.25;4.85;;;;;;;1.37;100.00;97373.41;5070863;28;24496;-76
2022/02/26 08:06:24;;;;;;;11.60;4.70;;;;;;;1.30;100.00;97378.50;5070493;28;24488;-76
2022/02/26 08:08:50;;;;;;;9.55;4.45;;;;;;;1.18;100.00;97380.19;5070213;28;24951;-76
2022/02/26 08:11:17;;;;;;;9.48;4.32;;;;;;;1.17;100.00;97380.19;5070755;28;24423;-75
2022/02/26 08:13:43;;;;;;;10.88;4.47;;;;;;;1.35;100.00;97380.19;5070516;28;24476;-75
2022/02/26 08:16:10;;;;;;;15.80;5.30;;;;;;;1.10;100.00;97381.06;5066912;28;24504;-75
2022/02/26 08:18:36;;;;;;;15.10;4.47;;;;;;;1.00;100.00;97376.78;5063698;28;24443;-75
2022/02/26 08:21:03;;;;;;;21.42;5.00;;;;;;;0.91;100.00;97378.50;5062942;28;24526;-75
2022/02/26 08:23:32;;;;;;;13.27;4.40;;;;;;;0.94;100.00;97383.59;5067252;28;24484;-75
2022/02/26 08:26:00;;;;;;;14.15;4.53;;;;;;;1.09;100.00;97382.75;5070388;28;24449;-75
2022/02/26 08:28:27;;;;;;;12.00;4.55;;;;;;;1.51;100.00;97392.94;5049791;28;24427;-76
2022/02/26 08:30:53;;;;;;;13.30;4.53;;;;;;;1.59;100.00;97396.34;5069630;28;24439;-75
2022/02/26 08:33:19;;;;;;;14.35;4.53;;;;;;;1.49;100.00;97392.13;5066763;28;24458;-76
2022/02/26 08:35:46;;;;;;;12.27;4.07;;;;;;;1.37;100.00;97386.16;5065915;28;24423;-76
2022/02/26 08:38:12;;;;;;;11.27;4.10;;;;;;;1.45;100.00;97392.09;5061689;28;24479;-75
2022/02/26 08:40:40;;;;;;;11.10;4.47;;;;;;;1.92;100.00;97397.97;5063485;28;24558;-76
2022/02/26 08:43:07;;;;;;;17.92;5.32;;;;;;;1.99;100.00;97393.69;5067112;28;24442;-76
2022/02/26 08:45:33;;;;;;;16.67;5.73;;;;;;;2.26;100.00;97392.75;5059331;28;24454;-75
2022/02/26 08:48:00;;;;;;;15.75;5.60;;;;;;;2.18;100.00;97393.63;5069522;28;24435;-75
2022/02/26 08:50:26;;;;;;;17.58;4.82;;;;;;;2.06;100.00;97383.44;5071873;28;24426;-76
2022/02/26 08:52:53;;;;;;;15.48;5.05;;;;;;;1.91;100.00;97386.91;5073957;28;24460;-76
2022/02/26 08:55:20;;;;;;;13.98;5.25;;;;;;;1.86;100.00;97387.78;5072221;28;24431;-76
2022/02/26 08:57:47;;;;;;;13.63;5.07;;;;;;;2.04;100.00;97377.50;5073396;28;24427;-76
2022/02/26 09:00:15;;;;;;;21.15;5.45;;;;;;;2.39;100.00;97376.50;5069092;28;24514;-75
2022/02/26 09:02:43;;;;;;;14.05;4.55;;;;;;;2.18;100.00;97382.53;5066081;28;24664;-76
2022/02/26 09:05:11;;;;;;;12.73;4.70;;;;;;;2.27;100.00;97385.09;5055403;28;24462;-75
2022/02/26 09:07:37;;;;;;;12.68;4.65;;;;;;;2.84;100.00;97380.50;5069309;28;24445;-76
2022/02/26 09:10:05;;;;;;;11.55;4.05;;;;;;;2.71;100.00;97381.44;5069666;28;24481;-75
2022/02/26 09:12:32;;;;;;;16.30;5.22;;;;;;;2.77;100.00;97380.53;5053814;28;24423;-75
2022/02/26 09:14:59;;;;;;;10.93;4.68;;;;;;;2.38;100.00;97385.88;5057086;28;24430;-74
2022/02/26 09:17:26;;;;;;;10.20;3.85;;;;;;;2.79;100.00;97386.53;5072795;28;24445;-75
2022/02/26 09:19:52;;;;;;;14.85;4.63;;;;;;;3.05;100.00;97382.06;5073622;28;24438;-75
2022/02/26 09:22:19;;;;;;;21.27;5.20;;;;;;;2.75;100.00;97382.28;5073094;28;24468;-76
2022/02/26 09:24:46;;;;;;;16.67;4.95;;;;;;;3.22;100.00;97370.84;5068937;28;24438;-75
2022/02/26 09:27:12;;;;;;;16.42;5.05;;;;;;;3.20;100.00;97375.13;5053331;28;24430;-76
2022/02/26 09:29:39;;;;;;;12.32;5.18;;;;;;;3.34;100.00;97375.88;5076798;28;24437;-76
2022/02/26 09:32:08;;;;;;;13.95;5.28;;;;;;;3.68;100.00;97373.00;5079435;28;24501;-76
2022/02/26 09:34:35;;;;;;;16.75;5.22;;;;;;;3.95;100.00;97374.41;5072291;28;24526;-77
2022/02/26 09:37:01;;;;;;;17.10;4.73;;;;;;;3.50;100.00;97379.16;5060955;28;24434;-76
2022/02/26 09:39:28;;;;;;;13.05;4.78;;;;;;;3.41;100.00;97382.63;5053571;28;24959;-77
2022/02/26 09:41:56;;;;;;;13.40;4.78;;;;;;;3.46;100.00;97377.47;5060289;28;24446;-77
2022/02/26 09:44:23;;;;;;;11.50;3.97;;;;;;;3.58;100.00;97370.50;5068626;28;25157;-76
2022/02/26 09:46:50;;;;;;;15.73;5.32;;;;;;;3.53;100.00;97371.44;5056822;28;24474;-77
2022/02/26 09:49:17;;;;;;;12.67;4.47;;;;;;;3.44;100.00;97376.63;5072735;28;24550;-76
2022/02/26 09:51:45;;;;;;;11.15;3.80;;;;;;;3.54;100.00;97381.66;5073171;28;24430;-77
2022/02/26 09:54:12;;;;;;;12.38;4.22;;;;;;;3.34;95.10;97378.44;5074433;28;24432;-77
2022/02/26 09:56:39;;;;;;;10.27;3.85;;;;;;;3.44;95.45;97384.31;5071148;28;24517;-75
2022/02/26 09:59:05;;;;;;;10.25;3.45;;;;;;;3.42;91.40;97396.31;5060924;28;24978;-77
2022/02/26 10:01:32;;;;;;;8.15;3.00;;;;;;;3.27;90.78;97381.91;5073030;28;24423;-76
2022/02/26 10:04:09;;;;;;;9.48;2.97;;;;;;;3.15;90.31;97383.72;5072695;28;24855;-77
2022/02/26 10:06:37;;;;;;;11.13;4.28;;;;;;;3.49;94.25;97385.13;5069682;28;24454;-77
2022/02/26 10:09:11;;;;;;;19.02;4.43;;;;;;;3.31;93.91;97383.56;5064316;28;24446;-75
2022/02/26 10:11:40;;;;;;;7.32;2.53;;;;;;;2.94;86.01;97388.97;5058121;28;24427;-76
2022/02/26 10:14:09;;;;;;;9.90;3.13;;;;;;;3.01;87.44;97390.63;5052465;28;24458;-76
2022/02/26 10:16:47;;;;;;;5.93;2.45;;;;;;;3.20;96.68;97385.38;5064797;28;24522;-77
2022/02/26 10:19:19;;;;;;;9.60;3.00;;;;;;;3.14;88.47;97387.09;5051848;28;24419;-77
2022/02/26 10:21:47;;;;;;;7.80;2.45;;;;;;;3.31;86.23;97389.53;5052286;28;24442;-77
2022/02/26 10:24:15;;;;;;;9.02;2.60;;;;;;;3.18;82.47;97393.06;5052301;28;24441;-77
2022/02/26 10:26:47;;;;;;;8.48;3.13;;;;;;;2.98;84.96;97392.38;5053432;28;24562;-77
2022/02/26 10:29:15;;;;;;;6.40;2.78;;;;;;;2.92;81.88;97394.09;5060340;28;24446;-77
2022/02/26 10:31:43;;;;;;;6.85;2.20;;;;;;;3.42;85.41;97391.19;5063939;28;24446;-76
2022/02/26 10:34:27;;;;;;;18.23;3.13;;;;;;;4.05;87.90;97389.69;5067783;28;24445;-77
2022/02/26 10:37:05;;;;;;;8.65;2.50;;;;;;;3.82;79.14;97386.50;5070563;28;24430;-77
2022/02/26 10:39:34;;;;;;;7.75;2.60;;;;;;;3.77;76.44;97386.56;5071719;28;24469;-75
2022/02/26 10:42:01;;;;;;;11.57;2.20;;;;;;;3.67;77.17;97390.09;5054568;28;24497;-76
2022/02/26 10:44:28;;;;;;;7.05;2.25;;;;;;;3.54;81.21;97388.50;5057170;28;25051;-77
2022/02/26 10:47:06;;;;;;;6.33;2.23;;;;;;;3.63;83.49;97376.47;5071792;28;24533;-72
2022/02/26 10:49:32;;;;;;;7.03;1.80;;;;;;;3.58;81.64;97373.06;5071443;28;24453;-76
2022/02/26 10:52:08;;;;;;;6.72;2.25;;;;;;;3.50;83.73;97380.00;5051958;28;24463;-75
2022/02/26 10:54:35;;;;;;;7.17;2.67;;;;;;;3.84;84.60;97374.53;5053339;28;24964;-76
2022/02/26 10:57:04;;;;;;;8.98;2.20;;;;;;;4.33;83.69;97374.81;5065610;28;24960;-75
2022/02/26 10:59:32;;;;;;;7.70;2.70;;;;;;;4.60;85.14;97378.75;5056065;28;24526;-77
2022/02/26 11:02:01;;;;;;;7.10;2.70;;;;;;;4.54;79.81;97377.97;5063071;28;24437;-77
2022/02/26 11:04:27;;;;;;;7.75;2.65;;;;;;;4.17;74.09;97370.75;5070088;28;24433;-74
2022/02/26 11:06:54;;;;;;;7.30;2.30;;;;;;;3.80;78.30;97381.41;5055736;28;24462;-75
2022/02/26 11:09:23;;;;;;;7.80;2.88;;;;;;;3.85;82.02;97374.50;5062986;28;24481;-76
2022/02/26 11:11:50;;;;;;;9.18;2.80;;;;;;;4.20;79.11;97375.00;5070630;28;24542;-76
2022/02/26 11:14:19;;;;;;;11.95;2.72;;;;;;;4.15;76.27;97364.75;5070791;28;24417;-76
2022/02/26 11:16:47;;;;;;;9.07;2.80;;;;;;;3.90;75.23;97369.34;5068569;28;24427;-77
2022/02/26 11:19:15;;;;;;;6.85;2.55;;;;;;;3.81;78.71;97370.28;5070602;28;24547;-76
2022/02/26 11:21:43;;;;;;;9.23;3.08;;;;;;;3.69;76.40;97372.97;5071344;28;24426;-75
2022/02/26 11:24:10;;;;;;;8.73;2.80;;;;;;;3.53;82.02;97376.56;5033727;23;24533;-74
2022/02/26 11:26:38;;;;;;;8.82;3.10;;;;;;;3.44;80.32;97369.78;5000747;28;24453;-74
2022/02/26 11:29:05;;;;;;;19.98;3.17;;;;;;;3.50;83.94;97371.47;5005792;28;24996;-74